| time (UTC) | temp F | wind direction | speed knots | gust knots | rain 1hr in | rain 24hr in | rain mn in | humidity % | barometer mb |
| 20260906231548 | 60 | 360 | 1.7 | 5.2 | 0.00 | 0.00 | 0.00 | 80 | 1017.6 |
| 20260906230047 | 61 | 360 | 0.9 | 4.3 | 0.00 | 0.00 | 0.00 | 80 | 1017.8 |
| 20260906224549 | 59 | 360 | 1.7 | 7.0 | 0.00 | 0.00 | 0.00 | 82 | 1017.8 |
| 20260906223050 | 60 | 360 | 1.7 | 7.0 | 0.00 | 0.00 | 0.00 | 79 | 1017.8 |
| 20260906221550 | 59 | 360 | 1.7 | 4.3 | 0.00 | 0.00 | 0.00 | 82 | 1018.0 |
| 20260906220056 | 58 | 319 | 1.7 | 4.3 | 0.00 | 0.00 | 0.00 | 84 | 1018.0 |
| 20260906214549 | 57 | 277 | 0.9 | 4.3 | 0.00 | 0.00 | 0.00 | 85 | 1017.9 |
| 20260906213048 | 57 | 198 | 2.6 | 5.2 | 0.00 | 0.00 | 0.00 | 85 | 1017.9 |
| 20260906211557 | 57 | 206 | 2.6 | 4.3 | 0.00 | 0.00 | 0.00 | 85 | 1018.1 |
| 20260906210056 | 57 | 176 | 1.7 | 4.3 | 0.00 | 0.00 | 0.00 | 86 | 1018.2 |
| 20260906204553 | 57 | 209 | 0.9 | 2.6 | 0.00 | 0.00 | 0.00 | 86 | 1018.1 |
| 20260906203058 | 57 | 214 | 1.7 | 2.6 | 0.00 | 0.00 | 0.00 | 86 | 1018.1 |
| 20260906201558 | 56 | 0 | 0.0 | 2.6 | 0.00 | 0.00 | 0.00 | 86 | 1018.1 |
| 20260906200053 | 56 | 288 | 0.9 | 3.5 | 0.00 | 0.00 | 0.00 | 87 | 1018.3 |
| 20260906194618 | 56 | 288 | 0.9 | 3.5 | 0.00 | 0.00 | 0.00 | 87 | 1018.3 |
| 20260906193103 | 56 | 231 | 0.9 | 2.6 | 0.00 | 0.00 | 0.00 | 87 | 1018.3 |
| 20260906191602 | 56 | 254 | 0.9 | 2.6 | 0.00 | 0.00 | 0.00 | 86 | 1018.5 |
| 20260906190052 | 56 | 0 | 0.0 | 0.0 | 0.00 | 0.00 | 0.00 | 85 | 1018.5 |
| 20260906184550 | 56 | 0 | 1.7 | 3.5 | 0.00 | 0.00 | 0.00 | 85 | 1018.5 |
| 20260906183045 | 57 | 0 | 0.0 | 1.7 | 0.00 | 0.00 | 0.00 | 85 | 1018.5 |
| 20260906181610 | 57 | 0 | 0.0 | 1.7 | 0.00 | 0.00 | 0.00 | 85 | 1018.5 |
| 20260906180059 | 56 | 0 | 0.0 | 0.9 | 0.00 | 0.00 | 0.00 | 87 | 1018.5 |
| 20260906174553 | 56 | 0 | 0.0 | 0.0 | 0.00 | 0.00 | 0.00 | 87 | 1018.6 |
| 20260906173049 | 55 | 0 | 0.0 | 0.0 | 0.00 | 0.00 | 0.00 | 87 | 1018.8 |
| 20260906171602 | 55 | 0 | 0.0 | 0.0 | 0.00 | 0.00 | 0.00 | 88 | 1018.8 |
| 20260906170108 | 54 | 0 | 0.0 | 0.0 | 0.00 | 0.00 | 0.00 | 89 | 1018.7 |
| 20260906164554 | 54 | 0 | 0.0 | 0.0 | 0.00 | 0.00 | 0.00 | 89 | 1018.7 |
| 20260906163052 | 54 | 0 | 0.0 | 0.0 | 0.00 | 0.00 | 0.00 | 89 | 1018.7 |
| 20260906161547 | 54 | 0 | 0.0 | 0.0 | 0.00 | 0.00 | 0.00 | 89 | 1018.8 |
| 20260906160051 | 54 | 0 | 0.0 | 0.0 | 0.00 | 0.00 | 0.00 | 89 | 1018.7 |
| 20260906154547 | 54 | 0 | 0.0 | 1.7 | 0.00 | 0.00 | 0.00 | 90 | 1018.5 |
| 20260906153047 | 54 | 0 | 0.0 | 0.0 | 0.00 | 0.00 | 0.00 | 90 | 1018.5 |
| 20260906151556 | 53 | 0 | 0.0 | 0.0 | 0.00 | 0.00 | 0.00 | 90 | 1018.3 |
| 20260906150051 | 53 | 0 | 0.0 | 0.0 | 0.00 | 0.00 | 0.00 | 90 | 1018.3 |
| 20260906144606 | 53 | 0 | 0.0 | 0.0 | 0.00 | 0.00 | 0.00 | 90 | 1018.5 |
| 20260906143050 | 53 | 0 | 0.0 | 2.6 | 0.00 | 0.00 | 0.00 | 90 | 1018.5 |
| 20260906141547 | 53 | 159 | 0.9 | 3.5 | 0.00 | 0.00 | 0.00 | 90 | 1018.3 |
| 20260906140052 | 53 | 0 | 0.0 | 0.0 | 0.00 | 0.00 | 0.00 | 90 | 1018.2 |
| 20260906134551 | 53 | 0 | 0.0 | 0.0 | 0.00 | 0.00 | 0.00 | 90 | 1018.1 |
| 20260906133103 | 53 | 0 | 0.0 | 0.0 | 0.00 | 0.00 | 0.00 | 90 | 1018.2 |
| 20260906131547 | 53 | 0 | 0.0 | 0.0 | 0.00 | 0.00 | 0.00 | 90 | 1018.1 |
| 20260906130058 | 53 | 0 | 0.0 | 0.0 | 0.00 | 0.00 | 0.00 | 91 | 1018.2 |
| 20260906124551 | 53 | 0 | 0.0 | 1.7 | 0.00 | 0.00 | 0.00 | 91 | 1018.2 |
| 20260906123049 | 53 | 0 | 0.0 | 0.0 | 0.00 | 0.00 | 0.00 | 91 | 1018.1 |
| 20260906121547 | 52 | 0 | 0.0 | 0.0 | 0.00 | 0.00 | 0.00 | 91 | 1018.1 |
| 20260906120050 | 52 | 0 | 0.0 | 0.0 | 0.00 | 0.00 | 0.00 | 91 | 1017.8 |
| 20260906114556 | 52 | 0 | 0.0 | 0.0 | 0.00 | 0.00 | 0.00 | 92 | 1017.7 |
| 20260906113047 | 51 | 0 | 0.0 | 0.0 | 0.00 | 0.00 | 0.00 | 91 | 1017.7 |
| 20260906111546 | 50 | 0 | 0.0 | 1.7 | 0.00 | 0.00 | 0.00 | 90 | 1017.7 |
| 20260906110050 | 51 | 0 | 0.0 | 1.7 | 0.00 | 0.00 | 0.00 | 91 | 1017.6 |
| 20260906104607 | 51 | 0 | 0.0 | 0.0 | 0.00 | 0.00 | 0.00 | 90 | 1017.5 |
| 20260906103048 | 52 | 0 | 0.0 | 0.0 | 0.00 | 0.00 | 0.00 | 90 | 1017.6 |
| 20260906101546 | 51 | 0 | 0.0 | 0.0 | 0.00 | 0.00 | 0.00 | 90 | 1017.5 |
| 20260906100051 | 51 | 0 | 0.0 | 0.0 | 0.00 | 0.00 | 0.00 | 89 | 1017.5 |
| 20260906094602 | 51 | 0 | 0.0 | 0.0 | 0.00 | 0.00 | 0.00 | 89 | 1017.6 |
| 20260906093108 | 52 | 0 | 0.0 | 0.0 | 0.00 | 0.00 | 0.00 | 88 | 1017.4 |
| 20260906091554 | 52 | 0 | 0.0 | 0.0 | 0.00 | 0.00 | 0.00 | 88 | 1017.1 |
| 20260906090049 | 51 | 0 | 0.0 | 0.0 | 0.00 | 0.00 | 0.00 | 88 | 1017.2 |
| 20260906084547 | 52 | 0 | 0.0 | 1.7 | 0.00 | 0.00 | 0.00 | 88 | 1017.2 |
| 20260906083054 | 52 | 0 | 0.0 | 0.0 | 0.00 | 0.00 | 0.00 | 87 | 1017.1 |
| 20260906081549 | 53 | 0 | 0.0 | 0.0 | 0.00 | 0.00 | 0.00 | 85 | 1017.0 |
| 20260906080048 | 53 | 0 | 0.0 | 0.0 | 0.00 | 0.00 | 0.00 | 86 | 1017.0 |
| 20260906074548 | 52 | 0 | 0.0 | 0.0 | 0.00 | 0.00 | 0.00 | 86 | 1016.8 |
| 20260906073053 | 53 | 0 | 0.0 | 0.0 | 0.00 | 0.00 | 0.00 | 86 | 1016.7 |
| 20260906071548 | 53 | 0 | 0.0 | 0.0 | 0.00 | 0.00 | 0.00 | 86 | 1016.7 |
| 20260906070057 | 53 | 0 | 0.0 | 0.0 | 0.00 | 0.00 | 0.00 | 86 | 1016.7 |
| 20260906064550 | 53 | 0 | 0.0 | 0.0 | 0.00 | 0.00 | 0.00 | 87 | 1016.6 |
| 20260906063101 | 53 | 0 | 0.0 | 0.0 | 0.00 | 0.00 | 0.00 | 87 | 1016.6 |
| 20260906061554 | 53 | 0 | 0.0 | 0.0 | 0.00 | 0.00 | 0.00 | 86 | 1016.6 |
| 20260906060057 | 55 | 0 | 0.0 | 0.0 | 0.00 | 0.00 | 0.00 | 84 | 1016.6 |
| 20260906054608 | 55 | 0 | 0.0 | 0.0 | 0.00 | 0.00 | 0.00 | 83 | 1016.6 |
| 20260906053047 | 55 | 0 | 0.0 | 0.0 | 0.00 | 0.00 | 0.00 | 84 | 1016.8 |
| 20260906051605 | 55 | 0 | 0.0 | 0.0 | 0.00 | 0.00 | 0.00 | 83 | 1016.5 |
| 20260906050105 | 56 | 0 | 0.0 | 0.0 | 0.00 | 0.00 | 0.00 | 84 | 1016.2 |
| 20260906044556 | 56 | 0 | 0.0 | 0.9 | 0.00 | 0.00 | 0.00 | 84 | 1016.3 |
| 20260906043046 | 56 | 0 | 0.0 | 0.0 | 0.00 | 0.00 | 0.00 | 83 | 1016.4 |
| 20260906041555 | 57 | 0 | 0.0 | 0.0 | 0.00 | 0.00 | 0.00 | 81 | 1016.5 |
| 20260906040100 | 58 | 0 | 0.0 | 0.0 | 0.00 | 0.00 | 0.00 | 79 | 1016.5 |
| 20260906034546 | 59 | 0 | 0.0 | 0.0 | 0.00 | 0.00 | 0.00 | 78 | 1016.7 |
| 20260906033049 | 59 | 0 | 0.0 | 0.0 | 0.00 | 0.00 | 0.00 | 79 | 1016.8 |
| 20260906031555 | 60 | 0 | 0.0 | 1.7 | 0.00 | 0.00 | 0.00 | 78 | 1016.7 |
| 20260906030050 | 62 | 0 | 0.0 | 0.0 | 0.00 | 0.00 | 0.00 | 72 | 1016.6 |
| 20260906024550 | 64 | 0 | 0.0 | 1.7 | 0.00 | 0.00 | 0.00 | 70 | 1016.4 |
| 20260906023047 | 65 | 360 | 0.9 | 2.6 | 0.00 | 0.00 | 0.00 | 68 | 1016.5 |
| 20260906021556 | 66 | 0 | 0.0 | 2.6 | 0.00 | 0.00 | 0.00 | 64 | 1016.5 |
| 20260906020052 | 66 | 192 | 0.9 | 4.3 | 0.00 | 0.00 | 0.00 | 62 | 1016.5 |
| 20260906014618 | 66 | 184 | 1.7 | 4.3 | 0.00 | 0.00 | 0.00 | 61 | 1016.5 |
| 20260906013055 | 66 | 170 | 2.6 | 4.3 | 0.00 | 0.00 | 0.00 | 60 | 1016.6 |
| 20260906011549 | 67 | 211 | 2.6 | 4.3 | 0.00 | 0.00 | 0.00 | 60 | 1016.5 |
| 20260906010050 | 68 | 360 | 2.6 | 4.3 | 0.00 | 0.00 | 0.00 | 60 | 1016.5 |
| 20260906004608 | 69 | 360 | 1.7 | 4.3 | 0.00 | 0.00 | 0.00 | 61 | 1016.5 |
| 20260906003054 | 69 | 184 | 1.7 | 4.3 | 0.00 | 0.00 | 0.00 | 60 | 1016.4 |
| 20260906001557 | 69 | 360 | 2.6 | 5.2 | 0.00 | 0.00 | 0.00 | 58 | 1016.4 |
| 20260906000046 | 69 | 155 | 2.6 | 6.1 | 0.00 | 0.00 | 0.00 | 60 | 1016.5 |
| 20260905234554 | 74 | 147 | 0.0 | 2.6 | 0.00 | 0.00 | 0.00 | 46 | 1016.4 |
| 20260905233048 | 75 | 0 | 0.0 | 0.0 | 0.00 | 0.00 | 0.00 | 49 | 1016.6 |